createdAt,value
2019-02-06T00:01:22.357Z,15.00
2019-02-06T00:03:49.067Z,15.00
2019-02-06T00:06:15.396Z,15.00
2019-02-06T00:08:41.855Z,14.90
2019-02-06T00:11:08.576Z,14.90
2019-02-06T00:13:34.989Z,14.90
2019-02-06T00:16:01.805Z,14.90
2019-02-06T00:18:28.408Z,14.90
2019-02-06T00:20:55.113Z,14.90
2019-02-06T00:23:21.505Z,14.90
2019-02-06T00:25:47.805Z,14.80
2019-02-06T00:28:14.335Z,14.90
2019-02-06T00:30:40.838Z,14.80
2019-02-06T00:33:08.310Z,14.80
2019-02-06T00:35:34.950Z,14.80
2019-02-06T00:38:01.462Z,14.90
2019-02-06T00:40:27.979Z,14.90
2019-02-06T00:42:54.657Z,14.80
2019-02-06T00:45:21.053Z,14.80
2019-02-06T00:47:47.560Z,14.80
2019-02-06T00:50:15.312Z,14.80
2019-02-06T00:52:41.728Z,14.80
2019-02-06T00:55:09.050Z,14.80
2019-02-06T00:57:35.804Z,14.80
2019-02-06T01:00:06.337Z,14.80
2019-02-06T01:02:32.854Z,14.80
2019-02-06T01:04:59.516Z,14.80
2019-02-06T01:07:27.278Z,14.70
2019-02-06T01:09:54.116Z,14.80
2019-02-06T01:12:20.629Z,14.70
2019-02-06T01:14:46.959Z,14.80
2019-02-06T01:17:13.477Z,14.70
2019-02-06T01:19:40.032Z,14.70
2019-02-06T01:22:06.336Z,14.70
2019-02-06T01:24:32.628Z,14.70
2019-02-06T01:26:59.440Z,14.80
2019-02-06T01:29:26.347Z,14.70
2019-02-06T01:31:53.577Z,14.70
2019-02-06T01:34:20.386Z,14.70
2019-02-06T01:36:46.798Z,14.70
2019-02-06T01:39:13.425Z,14.70
2019-02-06T01:41:39.944Z,14.70
2019-02-06T01:44:06.489Z,14.70
2019-02-06T01:46:32.996Z,14.70
2019-02-06T01:48:59.492Z,14.70
2019-02-06T01:51:26.023Z,14.70
2019-02-06T01:53:52.521Z,14.70
2019-02-06T01:56:19.061Z,14.70
2019-02-06T01:58:45.470Z,14.70
2019-02-06T02:01:11.969Z,14.70
2019-02-06T02:03:38.277Z,14.70
2019-02-06T02:06:05.039Z,14.70
2019-02-06T02:08:34.246Z,14.70
2019-02-06T02:11:00.873Z,14.70
2019-02-06T02:13:27.609Z,14.70
2019-02-06T02:15:54.727Z,14.70
2019-02-06T02:18:21.450Z,14.60
2019-02-06T02:20:48.100Z,14.70
2019-02-06T02:23:14.988Z,14.70
2019-02-06T02:25:41.398Z,14.60
2019-02-06T02:28:07.722Z,14.60
2019-02-06T02:30:42.505Z,14.60
2019-02-06T02:33:09.133Z,14.60
2019-02-06T02:35:35.453Z,14.60
2019-02-06T02:38:01.858Z,14.60
2019-02-06T02:40:28.290Z,14.60
2019-02-06T02:42:54.695Z,14.60
2019-02-06T02:45:21.122Z,14.50
2019-02-06T02:47:47.530Z,14.60
2019-02-06T02:50:13.843Z,14.60
2019-02-06T02:52:40.258Z,14.60
2019-02-06T02:55:08.667Z,14.60
2019-02-06T02:57:35.210Z,14.60
2019-02-06T03:00:04.025Z,14.50
2019-02-06T03:02:32.379Z,14.60
2019-02-06T03:04:59.569Z,14.50
2019-02-06T03:07:25.952Z,14.50
2019-02-06T03:09:52.503Z,14.50
2019-02-06T03:12:18.901Z,14.50
2019-02-06T03:14:45.217Z,14.50
2019-02-06T03:17:11.724Z,14.50
2019-02-06T03:19:38.225Z,14.50
2019-02-06T03:22:04.556Z,14.50
2019-02-06T03:24:31.279Z,14.50
2019-02-06T03:26:57.584Z,14.50
2019-02-06T03:29:24.133Z,14.50
2019-02-06T03:31:50.763Z,14.50
2019-02-06T03:34:17.324Z,14.50
2019-02-06T03:36:43.645Z,14.50
2019-02-06T03:39:10.382Z,14.50
2019-02-06T03:41:36.782Z,14.50
2019-02-06T03:44:03.618Z,14.50
2019-02-06T03:46:30.025Z,14.50
2019-02-06T03:48:57.571Z,14.50
2019-02-06T03:51:23.856Z,14.50
2019-02-06T03:53:50.166Z,14.50
2019-02-06T03:56:16.480Z,14.50
2019-02-06T03:58:42.885Z,14.50
2019-02-06T04:01:11.455Z,14.50
2019-02-06T04:03:38.223Z,14.50
2019-02-06T04:06:04.717Z,14.50
2019-02-06T04:08:31.334Z,14.50
2019-02-06T04:10:58.308Z,14.50
2019-02-06T04:13:24.639Z,14.50
2019-02-06T04:15:51.150Z,14.60
2019-02-06T04:18:17.585Z,14.70
2019-02-06T04:20:44.237Z,14.70
2019-02-06T04:23:12.500Z,14.70
2019-02-06T04:25:38.837Z,14.70
2019-02-06T04:28:05.445Z,14.80
2019-02-06T04:30:31.952Z,14.80
2019-02-06T04:32:59.353Z,14.80
2019-02-06T04:35:25.831Z,14.80
2019-02-06T04:37:52.443Z,14.80
2019-02-06T04:40:19.460Z,14.80
2019-02-06T04:42:46.261Z,14.80
2019-02-06T04:45:15.187Z,14.80
2019-02-06T04:47:41.862Z,14.70
2019-02-06T04:50:10.496Z,14.70
2019-02-06T04:52:37.259Z,14.70
2019-02-06T04:55:06.151Z,14.80
2019-02-06T04:57:32.892Z,14.80
2019-02-06T04:59:59.296Z,14.80
2019-02-06T05:02:32.351Z,14.80
2019-02-06T05:04:58.624Z,14.80
2019-02-06T05:07:25.190Z,14.80
2019-02-06T05:09:51.854Z,14.80
2019-02-06T05:12:18.503Z,14.80
2019-02-06T05:14:45.521Z,14.80
2019-02-06T05:17:12.032Z,14.80
2019-02-06T05:19:38.741Z,14.80
2019-02-06T05:22:05.349Z,14.80
2019-02-06T05:24:31.985Z,14.80
2019-02-06T05:26:58.314Z,14.80
2019-02-06T05:29:24.629Z,14.80
2019-02-06T05:31:50.922Z,14.80
2019-02-06T05:34:17.665Z,14.80
2019-02-06T05:36:44.074Z,14.80
2019-02-06T05:39:11.002Z,14.80
2019-02-06T05:41:37.413Z,14.80
2019-02-06T05:44:04.069Z,14.80
2019-02-06T05:46:30.520Z,14.80
2019-02-06T05:48:56.901Z,14.80
2019-02-06T05:51:23.441Z,14.80
2019-02-06T05:53:49.853Z,14.80
2019-02-06T05:56:16.259Z,14.80
2019-02-06T05:58:42.793Z,14.80
2019-02-06T06:01:10.016Z,14.70
2019-02-06T06:03:36.557Z,14.70
2019-02-06T06:06:02.870Z,14.70
2019-02-06T06:08:29.300Z,14.70
2019-02-06T06:10:55.876Z,14.70
2019-02-06T06:13:22.781Z,14.70
2019-02-06T06:15:49.227Z,14.70
2019-02-06T06:18:15.734Z,14.80
2019-02-06T06:20:42.239Z,14.70
2019-02-06T06:23:09.052Z,14.70
2019-02-06T06:25:35.578Z,14.70
2019-02-06T06:28:02.499Z,14.70
2019-02-06T06:30:28.893Z,14.70
2019-02-06T06:32:55.576Z,14.70
2019-02-06T06:35:22.185Z,14.70
2019-02-06T06:37:57.817Z,14.70
2019-02-06T06:40:21.381Z,14.70
2019-02-06T06:42:48.025Z,14.70
2019-02-06T06:45:16.517Z,14.70
2019-02-06T06:47:42.925Z,14.70
2019-02-06T06:50:14.907Z,14.70
2019-02-06T06:52:41.891Z,14.70
2019-02-06T06:55:10.515Z,14.70
2019-02-06T06:57:37.246Z,14.60
2019-02-06T07:00:13.572Z,14.60
2019-02-06T07:02:39.876Z,14.60
2019-02-06T07:05:08.886Z,14.60
2019-02-06T07:07:35.643Z,14.60
2019-02-06T07:10:05.368Z,14.60
2019-02-06T07:12:32.491Z,14.60
2019-02-06T07:14:59.405Z,14.60
2019-02-06T07:17:26.080Z,14.50
2019-02-06T07:19:52.412Z,14.50
2019-02-06T07:22:18.817Z,14.50
2019-02-06T07:24:45.692Z,14.60
2019-02-06T07:27:12.207Z,14.60
2019-02-06T07:29:38.525Z,14.50
2019-02-06T07:32:05.162Z,14.50
2019-02-06T07:34:31.948Z,14.60
2019-02-06T07:36:58.282Z,14.60
2019-02-06T07:39:25.285Z,14.60
2019-02-06T07:41:52.123Z,14.60
2019-02-06T07:44:18.965Z,14.60
2019-02-06T07:46:45.807Z,14.60
2019-02-06T07:49:12.966Z,14.60
2019-02-06T07:51:39.599Z,14.60
2019-02-06T07:54:06.448Z,14.50
2019-02-06T07:56:33.120Z,14.60
2019-02-06T07:59:00.019Z,14.60
2019-02-06T08:01:26.630Z,14.50
2019-02-06T08:03:53.280Z,14.60
2019-02-06T08:06:20.241Z,14.60
2019-02-06T08:08:47.012Z,14.60
2019-02-06T08:11:13.803Z,14.50
2019-02-06T08:13:40.928Z,14.50
2019-02-06T08:16:07.656Z,14.60
2019-02-06T08:18:34.862Z,14.60
2019-02-06T08:21:01.613Z,14.70
2019-02-06T08:23:28.561Z,14.70
2019-02-06T08:25:55.521Z,14.70
2019-02-06T08:28:22.433Z,14.70
2019-02-06T08:30:49.276Z,14.80
2019-02-06T08:33:16.229Z,14.80
2019-02-06T08:35:43.273Z,14.80
2019-02-06T08:38:10.442Z,14.80
2019-02-06T08:40:37.292Z,14.90
2019-02-06T08:43:05.268Z,14.90
2019-02-06T08:45:32.094Z,14.90
2019-02-06T08:47:59.051Z,14.90
2019-02-06T08:50:26.569Z,14.90
2019-02-06T08:52:53.326Z,14.90
2019-02-06T08:55:25.606Z,15.00
2019-02-06T08:57:52.354Z,15.00
2019-02-06T09:00:29.669Z,15.10
2019-02-06T09:02:56.343Z,15.10
2019-02-06T09:05:23.586Z,15.10
2019-02-06T09:07:50.380Z,15.00
2019-02-06T09:10:25.184Z,14.50
2019-02-06T09:12:52.491Z,14.20
2019-02-06T09:15:19.182Z,14.10
2019-02-06T09:17:45.704Z,14.10
2019-02-06T09:20:23.671Z,14.20
2019-02-06T09:22:50.330Z,14.20
2019-02-06T09:25:18.792Z,14.20
2019-02-06T09:27:45.553Z,13.70
2019-02-06T09:30:15.248Z,12.30
2019-02-06T09:32:41.598Z,11.60
2019-02-06T09:35:08.482Z,11.90
2019-02-06T09:37:35.270Z,12.40
2019-02-06T09:40:02.807Z,12.80
2019-02-06T09:42:29.342Z,13.00
2019-02-06T09:44:55.901Z,13.30
2019-02-06T09:47:22.207Z,13.40
2019-02-06T09:49:49.931Z,12.90
2019-02-06T09:52:16.609Z,11.80
2019-02-06T09:54:43.093Z,12.00
2019-02-06T09:57:09.646Z,12.60
2019-02-06T09:59:36.658Z,13.00
2019-02-06T10:02:03.279Z,13.30
2019-02-06T10:04:29.843Z,13.50
2019-02-06T10:06:56.389Z,13.70
2019-02-06T10:09:23.291Z,13.80
2019-02-06T10:11:49.901Z,13.90
2019-02-06T10:14:16.225Z,14.10
2019-02-06T10:16:42.847Z,14.20
2019-02-06T10:19:09.747Z,14.40
2019-02-06T10:21:36.393Z,14.50
2019-02-06T10:24:02.677Z,14.60
2019-02-06T10:26:29.618Z,14.70
2019-02-06T10:28:56.143Z,14.80
2019-02-06T10:31:22.546Z,14.90
2019-02-06T10:33:48.997Z,15.00
2019-02-06T10:36:15.478Z,15.10
2019-02-06T10:38:42.381Z,15.20
2019-02-06T10:41:08.665Z,15.30
2019-02-06T10:43:35.862Z,15.40
2019-02-06T10:46:02.586Z,15.40
2019-02-06T10:48:28.901Z,15.40
2019-02-06T10:50:58.242Z,15.40
2019-02-06T10:53:24.130Z,15.50
2019-02-06T10:55:50.778Z,15.60
2019-02-06T10:58:17.802Z,15.70
2019-02-06T11:00:52.939Z,15.70
2019-02-06T11:03:19.508Z,15.60
2019-02-06T11:05:49.987Z,15.60
2019-02-06T11:08:25.679Z,15.50
2019-02-06T11:10:52.522Z,15.60
2019-02-06T11:13:18.817Z,15.70
2019-02-06T11:15:45.273Z,15.70
2019-02-06T11:18:11.941Z,15.60
2019-02-06T11:20:38.828Z,15.90
2019-02-06T11:23:06.046Z,16.00
2019-02-06T11:25:32.585Z,16.10
2019-02-06T11:27:59.018Z,16.10
2019-02-06T11:30:31.152Z,16.00
2019-02-06T11:32:57.870Z,16.10
2019-02-06T11:35:24.181Z,16.10
2019-02-06T11:37:50.992Z,16.20
2019-02-06T11:40:22.044Z,16.20
2019-02-06T11:42:48.861Z,16.30
2019-02-06T11:45:17.769Z,16.30
2019-02-06T11:47:45.078Z,16.40
2019-02-06T11:50:15.180Z,16.50
2019-02-06T11:52:41.718Z,16.70
2019-02-06T11:55:11.343Z,16.80
2019-02-06T11:57:37.652Z,16.90
2019-02-06T12:00:11.758Z,16.90
2019-02-06T12:02:39.138Z,16.90
2019-02-06T12:05:07.239Z,16.90
2019-02-06T12:07:33.557Z,16.90
2019-02-06T12:10:09.434Z,17.00
2019-02-06T12:12:28.178Z,17.10
2019-02-06T12:14:54.478Z,17.10
2019-02-06T12:17:20.989Z,17.10
2019-02-06T12:19:47.729Z,17.10
2019-02-06T12:22:14.624Z,17.10
2019-02-06T12:24:40.930Z,17.10
2019-02-06T12:27:07.340Z,17.00
2019-02-06T12:29:33.634Z,17.10
2019-02-06T12:32:00.053Z,17.00
2019-02-06T12:34:26.672Z,17.00
2019-02-06T12:36:53.082Z,17.00
2019-02-06T12:39:22.472Z,17.00
2019-02-06T12:41:47.614Z,17.00
2019-02-06T12:44:14.161Z,17.00
2019-02-06T12:46:41.277Z,17.00
2019-02-06T12:49:08.044Z,17.00
2019-02-06T12:51:34.369Z,17.00
2019-02-06T12:54:00.924Z,17.00
2019-02-06T12:56:27.525Z,16.90
2019-02-06T12:58:54.407Z,17.00
2019-02-06T13:01:21.132Z,17.00
2019-02-06T13:03:47.748Z,17.00
2019-02-06T13:06:14.166Z,17.00
2019-02-06T13:08:41.361Z,17.10
2019-02-06T13:11:07.997Z,17.10
2019-02-06T13:13:34.859Z,17.10
2019-02-06T13:16:01.162Z,17.10
2019-02-06T13:18:27.466Z,17.10
2019-02-06T13:20:53.898Z,17.10
2019-02-06T13:23:20.301Z,17.10
2019-02-06T13:25:46.606Z,17.10
2019-02-06T13:28:13.525Z,17.20
2019-02-06T13:30:40.147Z,17.20
2019-02-06T13:33:07.090Z,17.30
2019-02-06T13:35:33.401Z,16.90
2019-02-06T13:37:59.907Z,16.30
2019-02-06T13:40:27.743Z,15.60
2019-02-06T13:42:54.727Z,15.20
2019-02-06T13:45:27.834Z,15.10
2019-02-06T13:47:54.237Z,15.00
2019-02-06T13:50:22.416Z,14.90
2019-02-06T13:52:48.978Z,15.10
2019-02-06T13:55:15.776Z,15.70
2019-02-06T13:57:42.176Z,16.00
2019-02-06T14:00:14.668Z,16.20
2019-02-06T14:02:41.473Z,16.40
2019-02-06T14:05:08.228Z,16.50
2019-02-06T14:07:34.523Z,16.60
2019-02-06T14:10:01.140Z,16.60
2019-02-06T14:12:27.613Z,16.70
2019-02-06T14:14:53.917Z,16.70
2019-02-06T14:17:20.635Z,16.70
2019-02-06T14:19:47.133Z,16.80
2019-02-06T14:22:13.866Z,16.90
2019-02-06T14:24:43.165Z,16.90
2019-02-06T14:27:13.267Z,16.90
2019-02-06T14:30:09.769Z,16.90
2019-02-06T14:32:40.373Z,17.10
2019-02-06T14:35:34.960Z,17.00
2019-02-06T14:38:38.474Z,17.00
2019-02-06T14:41:08.950Z,17.00
2019-02-06T14:43:48.149Z,17.10
2019-02-06T14:46:43.349Z,17.10
2019-02-06T14:49:16.758Z,17.10
2019-02-06T14:52:17.152Z,17.20
2019-02-06T14:54:47.253Z,17.20
2019-02-06T14:57:29.702Z,17.20
2019-02-06T14:59:59.809Z,17.20
2019-02-06T15:02:42.073Z,17.20
2019-02-06T15:05:21.261Z,17.30
2019-02-06T15:07:51.552Z,17.30
2019-02-06T15:10:28.034Z,17.30
2019-02-06T15:13:00.932Z,17.30
2019-02-06T15:15:37.153Z,17.30
2019-02-06T15:18:28.692Z,17.30
2019-02-06T15:21:04.617Z,17.40
2019-02-06T15:23:37.506Z,17.40
2019-02-06T15:26:16.404Z,17.40
2019-02-06T15:28:46.803Z,17.40
2019-02-06T15:31:28.896Z,17.40
2019-02-06T15:34:33.047Z,17.40
2019-02-06T15:37:18.407Z,17.40
2019-02-06T15:40:00.713Z,17.30
2019-02-06T15:42:31.206Z,17.30
2019-02-06T15:45:16.533Z,17.30
2019-02-06T15:47:52.984Z,17.30
2019-02-06T15:50:42.304Z,17.30
2019-02-06T15:53:15.449Z,17.30
2019-02-06T15:55:51.313Z,17.20
2019-02-06T15:58:42.853Z,17.20
2019-02-06T16:01:34.360Z,17.20
2019-02-06T16:04:49.437Z,17.20
2019-02-06T16:07:43.803Z,17.20
2019-02-06T16:10:35.058Z,17.20
2019-02-06T16:13:35.168Z,17.20
2019-02-06T16:16:20.711Z,17.20
2019-02-06T16:18:59.880Z,17.10
2019-02-06T16:21:39.396Z,17.10
2019-02-06T16:24:15.260Z,17.10
2019-02-06T16:26:51.339Z,17.00
2019-02-06T16:29:41.070Z,17.00
2019-02-06T16:32:28.634Z,17.00
2019-02-06T16:35:16.417Z,17.00
2019-02-06T16:38:01.229Z,17.00
2019-02-06T16:40:47.025Z,17.00
2019-02-06T16:43:52.899Z,17.00
2019-02-06T16:46:25.930Z,17.00
2019-02-06T16:49:08.494Z,17.00
2019-02-06T16:51:41.636Z,17.00
2019-02-06T16:54:12.183Z,17.00
2019-02-06T16:56:42.318Z,17.00
2019-02-06T16:59:32.596Z,17.00
2019-02-06T17:02:28.563Z,17.00
2019-02-06T17:05:13.633Z,16.50
2019-02-06T17:07:46.514Z,15.60
2019-02-06T17:10:34.144Z,15.90
2019-02-06T17:13:30.193Z,16.20
2019-02-06T17:16:21.364Z,16.30
2019-02-06T17:18:54.930Z,16.50
2019-02-06T17:21:37.001Z,16.60
2019-02-06T17:24:16.090Z,16.70
2019-02-06T17:26:58.278Z,16.70
2019-02-06T17:29:43.045Z,16.70
2019-02-06T17:32:33.072Z,16.80
2019-02-06T17:35:15.356Z,16.80
2019-02-06T17:38:02.215Z,16.80
2019-02-06T17:40:35.592Z,16.80
2019-02-06T17:43:30.196Z,16.80
2019-02-06T17:46:03.428Z,16.90
2019-02-06T17:48:37.323Z,16.90
2019-02-06T17:51:15.935Z,16.90
2019-02-06T17:53:46.209Z,16.80
2019-02-06T17:56:12.518Z,16.90
2019-02-06T17:58:39.032Z,16.90
2019-02-06T18:01:09.506Z,16.90
2019-02-06T18:03:38.833Z,16.90
2019-02-06T18:06:05.483Z,17.00
2019-02-06T18:08:32.321Z,17.00
2019-02-06T18:10:58.911Z,16.90
2019-02-06T18:13:25.311Z,17.00
2019-02-06T18:15:51.826Z,17.00
2019-02-06T18:18:18.669Z,17.00
2019-02-06T18:20:45.340Z,17.00
2019-02-06T18:23:11.749Z,17.00
2019-02-06T18:25:38.162Z,17.10
2019-02-06T18:28:04.665Z,17.10
2019-02-06T18:30:31.106Z,17.10
2019-02-06T18:32:58.303Z,17.10
2019-02-06T18:35:24.617Z,17.10
2019-02-06T18:37:51.050Z,17.10
2019-02-06T18:40:17.566Z,17.10
2019-02-06T18:42:44.673Z,17.10
2019-02-06T18:45:14.490Z,17.10
2019-02-06T18:47:40.784Z,17.10
2019-02-06T18:50:14.025Z,17.10
2019-02-06T18:52:40.804Z,17.10
2019-02-06T18:55:10.417Z,17.00
2019-02-06T18:57:36.834Z,17.10
2019-02-06T19:00:10.298Z,17.10
2019-02-06T19:02:37.029Z,17.10
2019-02-06T19:05:07.177Z,17.00
2019-02-06T19:07:39.994Z,17.10
2019-02-06T19:10:13.148Z,17.10
2019-02-06T19:12:47.874Z,17.00
2019-02-06T19:15:10.496Z,17.00
2019-02-06T19:17:37.105Z,17.00
2019-02-06T19:20:08.056Z,17.00
2019-02-06T19:22:34.706Z,17.00
2019-02-06T19:25:01.341Z,17.00
2019-02-06T19:27:27.976Z,17.00
2019-02-06T19:29:54.418Z,16.90
2019-02-06T19:32:20.954Z,17.00
2019-02-06T19:34:47.628Z,16.90
2019-02-06T19:37:15.011Z,17.00
2019-02-06T19:39:41.526Z,16.90
2019-02-06T19:42:08.774Z,16.90
2019-02-06T19:44:35.663Z,16.90
2019-02-06T19:47:02.060Z,16.90
2019-02-06T19:49:28.630Z,16.90
2019-02-06T19:51:55.018Z,16.90
2019-02-06T19:54:23.512Z,16.90
2019-02-06T19:56:50.071Z,16.90
2019-02-06T19:59:16.587Z,16.90
2019-02-06T20:01:43.409Z,16.90
2019-02-06T20:04:10.717Z,16.90
2019-02-06T20:06:37.077Z,16.90
2019-02-06T20:09:05.612Z,16.90
2019-02-06T20:11:32.015Z,16.90
2019-02-06T20:13:58.673Z,16.90
2019-02-06T20:16:25.409Z,17.00
2019-02-06T20:18:52.007Z,17.00
2019-02-06T20:21:18.411Z,17.00
2019-02-06T20:23:44.826Z,17.00
2019-02-06T20:26:11.224Z,16.90
2019-02-06T20:28:38.253Z,17.00
2019-02-06T20:31:04.705Z,17.00
2019-02-06T20:33:31.125Z,17.00
2019-02-06T20:35:57.584Z,16.90
2019-02-06T20:38:23.916Z,16.90
2019-02-06T20:40:50.450Z,16.90
2019-02-06T20:43:22.205Z,16.90
2019-02-06T20:45:45.786Z,16.90
2019-02-06T20:48:12.101Z,16.90
2019-02-06T20:50:39.236Z,16.80
2019-02-06T20:53:05.906Z,16.80
2019-02-06T20:55:32.455Z,16.80
2019-02-06T20:57:58.774Z,16.80
2019-02-06T21:00:30.806Z,16.80
2019-02-06T21:02:57.758Z,16.80
2019-02-06T21:05:24.284Z,16.70
2019-02-06T21:07:50.730Z,16.70
2019-02-06T21:10:23.381Z,16.70
2019-02-06T21:12:49.803Z,16.60
2019-02-06T21:15:16.454Z,16.60
2019-02-06T21:17:43.315Z,16.70
2019-02-06T21:20:12.633Z,16.70
2019-02-06T21:22:39.153Z,16.60
2019-02-06T21:25:09.629Z,16.60
2019-02-06T21:27:36.277Z,16.60
2019-02-06T21:30:06.414Z,16.60
2019-02-06T21:32:32.813Z,16.60
2019-02-06T21:34:59.290Z,16.60
2019-02-06T21:37:27.131Z,16.50
2019-02-06T21:39:53.829Z,16.50
2019-02-06T21:42:20.280Z,16.50
2019-02-06T21:44:47.198Z,16.50
2019-02-06T21:47:13.495Z,16.50
2019-02-06T21:49:39.816Z,16.50
2019-02-06T21:52:06.348Z,16.50
2019-02-06T21:54:32.852Z,16.40
2019-02-06T21:56:59.293Z,16.40
2019-02-06T21:59:25.824Z,16.50
2019-02-06T22:01:52.364Z,16.40
2019-02-06T22:04:19.080Z,16.40
2019-02-06T22:06:45.573Z,16.40
2019-02-06T22:09:11.897Z,16.30
2019-02-06T22:11:38.309Z,16.30
2019-02-06T22:14:04.822Z,16.30
2019-02-06T22:16:31.477Z,16.30
2019-02-06T22:18:57.883Z,16.30
2019-02-06T22:21:24.206Z,16.30
2019-02-06T22:23:51.254Z,16.30
2019-02-06T22:26:17.687Z,16.30
2019-02-06T22:28:44.309Z,16.30
2019-02-06T22:31:10.947Z,16.30
2019-02-06T22:33:37.248Z,16.30
2019-02-06T22:36:03.771Z,16.30
2019-02-06T22:38:30.193Z,16.30
2019-02-06T22:40:56.654Z,16.30
2019-02-06T22:43:23.516Z,16.30
2019-02-06T22:45:49.957Z,16.20
2019-02-06T22:48:16.637Z,16.20
2019-02-06T22:50:43.208Z,16.20
2019-02-06T22:53:10.066Z,16.20
2019-02-06T22:55:36.485Z,16.20
2019-02-06T22:58:02.805Z,16.20
2019-02-06T23:00:43.753Z,16.20
2019-02-06T23:03:10.064Z,16.20
2019-02-06T23:05:36.470Z,16.20
2019-02-06T23:08:02.803Z,16.20
2019-02-06T23:10:29.334Z,16.20
2019-02-06T23:12:55.725Z,16.20
2019-02-06T23:15:22.149Z,16.10
2019-02-06T23:17:48.759Z,16.10
2019-02-06T23:20:16.121Z,16.10
2019-02-06T23:22:42.432Z,16.10
2019-02-06T23:25:08.945Z,16.10
2019-02-06T23:27:35.264Z,16.10
2019-02-06T23:30:01.661Z,16.10
2019-02-06T23:32:28.077Z,16.10
2019-02-06T23:34:54.482Z,16.10
2019-02-06T23:37:21.659Z,16.10
2019-02-06T23:39:48.096Z,16.10
2019-02-06T23:42:14.731Z,16.10
2019-02-06T23:44:41.277Z,16.10
2019-02-06T23:47:07.598Z,16.10
2019-02-06T23:49:33.999Z,16.00
2019-02-06T23:52:00.316Z,16.10
2019-02-06T23:54:26.608Z,16.00
2019-02-06T23:56:53.537Z,16.00
2019-02-06T23:59:19.957Z,16.00
